Current Weather

Chicago Midway Intl Arpt

Chicago Midway Intl Arpt, Illinois (KMDW)

Report from: Thursday, May 19, 2022 12:53 PM CDT
Current time: Thursday, May 19, 2022 1:11 PM CDT

Nearby weather
Weather history
Weather forecast

Temperature27.2°C (81.0°F)
Heat index28.2°C (82.7°F)
Dew point17.2°C (63.0°F)
Winds 11 kts (5.7 m/s, 12.7 mph) South-Southwest (210°)
Wind gusts 19 kts (9.8 m/s, 21.9 mph)
Visibility10 mi. (16.1 km)
Clouds Few clouds 4,000 ft. (1,219 m)
Few clouds 11,000 ft. (3,353 m)
Scattered clouds 15,000 ft. (4,572 m)
Ceiling: Broken clouds 25,000 ft. (7,620 m)
Altimeter29.64 in.Hg (1004 mB)
Relative humidity54 %
Density altitude1,996 ft. (608 m)
Sea-level pressure100.3 kPa (1003 mB, 29.62 in.Hg)
Max temp last 6 hours27.8°C (82.0°F)
Min temp last 6 hours15.0°C (59.0°F)
Remarks Automated weather observing station with precipitation discriminator
Pressure falling more slowly
Flight conditions Visual Meteorological Conditions
Raw dataKMDW 191753Z 21011G19KT 10SM FEW040 FEW110 SCT150 BKN250 27/17 A2964 RMK AO2 SLP029 T02720172 10278 20150 56019
An error has occurred. This application may no longer respond until reloaded. Reload 🗙